sensor_id;sensor_type;location;lat;lon;timestamp;P1;durP1;ratioP1;P2;durP2;ratioP2
39018;SDS011;24786;51.984;5.872;2023-01-16T00:01:02;3.78;;;1.70;;
39018;SDS011;24786;51.984;5.872;2023-01-16T00:03:28;2.60;;;1.67;;
39018;SDS011;24786;51.984;5.872;2023-01-16T00:05:53;2.63;;;1.58;;
39018;SDS011;24786;51.984;5.872;2023-01-16T00:08:19;2.67;;;1.80;;
39018;SDS011;24786;51.984;5.872;2023-01-16T00:10:44;4.60;;;2.20;;
39018;SDS011;24786;51.984;5.872;2023-01-16T00:13:10;2.30;;;1.70;;
39018;SDS011;24786;51.984;5.872;2023-01-16T00:15:37;1.75;;;1.58;;
39018;SDS011;24786;51.984;5.872;2023-01-16T00:18:08;1.83;;;1.42;;
39018;SDS011;24786;51.984;5.872;2023-01-16T00:20:33;2.63;;;1.90;;
39018;SDS011;24786;51.984;5.872;2023-01-16T00:22:59;3.90;;;2.22;;
39018;SDS011;24786;51.984;5.872;2023-01-16T00:25:24;4.50;;;2.00;;
39018;SDS011;24786;51.984;5.872;2023-01-16T00:27:50;2.22;;;2.00;;
39018;SDS011;24786;51.984;5.872;2023-01-16T00:30:15;4.75;;;2.38;;
39018;SDS011;24786;51.984;5.872;2023-01-16T00:32:41;3.47;;;2.20;;
39018;SDS011;24786;51.984;5.872;2023-01-16T00:35:06;4.22;;;2.40;;
39018;SDS011;24786;51.984;5.872;2023-01-16T00:37:32;5.75;;;2.55;;
39018;SDS011;24786;51.984;5.872;2023-01-16T00:39:58;3.35;;;2.90;;
39018;SDS011;24786;51.984;5.872;2023-01-16T00:42:23;3.28;;;2.75;;
39018;SDS011;24786;51.984;5.872;2023-01-16T00:44:49;3.63;;;3.05;;
39018;SDS011;24786;51.984;5.872;2023-01-16T00:47:15;5.35;;;3.70;;
39018;SDS011;24786;51.984;5.872;2023-01-16T00:49:40;5.43;;;3.17;;
39018;SDS011;24786;51.984;5.872;2023-01-16T00:52:06;6.07;;;3.83;;
39018;SDS011;24786;51.984;5.872;2023-01-16T00:54:31;6.18;;;4.20;;
39018;SDS011;24786;51.984;5.872;2023-01-16T00:56:57;5.78;;;4.43;;
39018;SDS011;24786;51.984;5.872;2023-01-16T00:59:22;7.32;;;5.20;;
39018;SDS011;24786;51.984;5.872;2023-01-16T01:01:48;7.35;;;5.28;;
39018;SDS011;24786;51.984;5.872;2023-01-16T01:04:13;7.38;;;5.68;;
39018;SDS011;24786;51.984;5.872;2023-01-16T01:06:39;8.52;;;6.20;;
39018;SDS011;24786;51.984;5.872;2023-01-16T01:09:05;9.35;;;6.32;;
39018;SDS011;24786;51.984;5.872;2023-01-16T01:11:31;7.35;;;5.65;;
39018;SDS011;24786;51.984;5.872;2023-01-16T01:13:57;8.18;;;6.40;;
39018;SDS011;24786;51.984;5.872;2023-01-16T01:16:22;7.60;;;6.00;;
39018;SDS011;24786;51.984;5.872;2023-01-16T01:18:49;10.80;;;6.65;;
39018;SDS011;24786;51.984;5.872;2023-01-16T01:21:15;8.15;;;6.22;;
39018;SDS011;24786;51.984;5.872;2023-01-16T01:23:41;11.77;;;6.38;;
39018;SDS011;24786;51.984;5.872;2023-01-16T01:26:07;7.75;;;6.30;;
39018;SDS011;24786;51.984;5.872;2023-01-16T01:28:35;7.60;;;6.35;;
39018;SDS011;24786;51.984;5.872;2023-01-16T01:31:08;8.48;;;6.72;;
39018;SDS011;24786;51.984;5.872;2023-01-16T01:33:35;9.35;;;6.53;;
39018;SDS011;24786;51.984;5.872;2023-01-16T01:36:02;8.15;;;6.10;;
39018;SDS011;24786;51.984;5.872;2023-01-16T01:38:28;7.75;;;6.13;;
39018;SDS011;24786;51.984;5.872;2023-01-16T01:40:54;6.60;;;5.57;;
39018;SDS011;24786;51.984;5.872;2023-01-16T01:43:19;7.57;;;5.60;;
39018;SDS011;24786;51.984;5.872;2023-01-16T01:45:47;7.07;;;5.47;;
39018;SDS011;24786;51.984;5.872;2023-01-16T01:51:06;7.07;;;4.82;;
39018;SDS011;24786;51.984;5.872;2023-01-16T01:53:46;6.78;;;4.35;;
39018;SDS011;24786;51.984;5.872;2023-01-16T01:56:17;8.48;;;5.25;;
39018;SDS011;24786;51.984;5.872;2023-01-16T01:58:52;8.00;;;4.45;;
39018;SDS011;24786;51.984;5.872;2023-01-16T02:01:20;6.35;;;4.43;;
39018;SDS011;24786;51.984;5.872;2023-01-16T02:03:46;6.35;;;4.00;;
39018;SDS011;24786;51.984;5.872;2023-01-16T02:06:20;7.90;;;3.85;;
39018;SDS011;24786;51.984;5.872;2023-01-16T02:08:50;6.35;;;3.65;;
39018;SDS011;24786;51.984;5.872;2023-01-16T02:11:32;4.72;;;3.47;;
39018;SDS011;24786;51.984;5.872;2023-01-16T02:14:05;5.43;;;3.42;;
39018;SDS011;24786;51.984;5.872;2023-01-16T02:16:33;9.90;;;3.53;;
39018;SDS011;24786;51.984;5.872;2023-01-16T02:19:23;8.82;;;3.20;;
39018;SDS011;24786;51.984;5.872;2023-01-16T02:33:27;5.32;;;2.13;;
39018;SDS011;24786;51.984;5.872;2023-01-16T02:36:16;4.53;;;1.95;;
39018;SDS011;24786;51.984;5.872;2023-01-16T02:41:37;7.97;;;2.42;;
39018;SDS011;24786;51.984;5.872;2023-01-16T02:44:29;3.95;;;2.22;;
39018;SDS011;24786;51.984;5.872;2023-01-16T02:47:22;3.15;;;1.98;;
39018;SDS011;24786;51.984;5.872;2023-01-16T02:49:51;5.88;;;2.05;;
39018;SDS011;24786;51.984;5.872;2023-01-16T02:52:35;4.32;;;1.88;;
39018;SDS011;24786;51.984;5.872;2023-01-16T02:55:39;4.72;;;1.98;;
39018;SDS011;24786;51.984;5.872;2023-01-16T02:58:09;6.82;;;1.85;;
39018;SDS011;24786;51.984;5.872;2023-01-16T03:00:37;9.35;;;1.70;;
39018;SDS011;24786;51.984;5.872;2023-01-16T03:03:29;5.40;;;2.20;;
39018;SDS011;24786;51.984;5.872;2023-01-16T03:06:03;4.32;;;1.60;;
39018;SDS011;24786;51.984;5.872;2023-01-16T03:11:37;4.25;;;1.48;;
39018;SDS011;24786;51.984;5.872;2023-01-16T03:17:00;3.60;;;1.70;;
39018;SDS011;24786;51.984;5.872;2023-01-16T03:19:58;3.47;;;1.95;;
39018;SDS011;24786;51.984;5.872;2023-01-16T03:22:49;4.35;;;1.88;;
39018;SDS011;24786;51.984;5.872;2023-01-16T03:25:24;6.05;;;1.65;;
39018;SDS011;24786;51.984;5.872;2023-01-16T03:27:56;4.03;;;2.17;;
39018;SDS011;24786;51.984;5.872;2023-01-16T03:30:31;3.78;;;1.60;;
39018;SDS011;24786;51.984;5.872;2023-01-16T03:33:06;5.28;;;1.65;;
39018;SDS011;24786;51.984;5.872;2023-01-16T03:35:42;7.07;;;1.30;;
39018;SDS011;24786;51.984;5.872;2023-01-16T03:38:15;3.90;;;1.90;;
39018;SDS011;24786;51.984;5.872;2023-01-16T03:40:44;6.18;;;2.00;;
39018;SDS011;24786;51.984;5.872;2023-01-16T03:45:56;5.20;;;1.50;;
39018;SDS011;24786;51.984;5.872;2023-01-16T03:51:06;2.72;;;1.70;;
39018;SDS011;24786;51.984;5.872;2023-01-16T03:53:36;6.72;;;1.83;;
39018;SDS011;24786;51.984;5.872;2023-01-16T03:56:23;4.43;;;1.80;;
39018;SDS011;24786;51.984;5.872;2023-01-16T03:58:59;8.68;;;2.13;;
39018;SDS011;24786;51.984;5.872;2023-01-16T04:04:22;6.32;;;2.20;;
39018;SDS011;24786;51.984;5.872;2023-01-16T04:07:05;4.60;;;1.60;;
39018;SDS011;24786;51.984;5.872;2023-01-16T04:09:43;4.35;;;1.48;;
39018;SDS011;24786;51.984;5.872;2023-01-16T04:12:15;3.42;;;1.60;;
39018;SDS011;24786;51.984;5.872;2023-01-16T04:14:46;5.45;;;1.45;;
39018;SDS011;24786;51.984;5.872;2023-01-16T04:17:15;5.60;;;1.60;;
39018;SDS011;24786;51.984;5.872;2023-01-16T04:19:42;5.78;;;1.60;;
39018;SDS011;24786;51.984;5.872;2023-01-16T04:22:09;2.65;;;1.60;;
39018;SDS011;24786;51.984;5.872;2023-01-16T04:24:47;7.65;;;1.88;;
39018;SDS011;24786;51.984;5.872;2023-01-16T04:27:14;3.65;;;1.50;;
39018;SDS011;24786;51.984;5.872;2023-01-16T04:29:40;2.45;;;1.80;;
39018;SDS011;24786;51.984;5.872;2023-01-16T04:32:06;5.47;;;1.90;;
39018;SDS011;24786;51.984;5.872;2023-01-16T04:34:31;5.68;;;2.47;;
39018;SDS011;24786;51.984;5.872;2023-01-16T04:36:57;6.20;;;2.40;;
39018;SDS011;24786;51.984;5.872;2023-01-16T04:39:23;9.85;;;2.38;;
39018;SDS011;24786;51.984;5.872;2023-01-16T04:41:49;3.88;;;1.85;;
39018;SDS011;24786;51.984;5.872;2023-01-16T04:44:15;6.68;;;2.38;;
39018;SDS011;24786;51.984;5.872;2023-01-16T04:46:42;5.57;;;2.53;;
39018;SDS011;24786;51.984;5.872;2023-01-16T04:49:07;5.40;;;1.90;;
39018;SDS011;24786;51.984;5.872;2023-01-16T04:51:34;2.83;;;1.77;;
39018;SDS011;24786;51.984;5.872;2023-01-16T04:54:01;4.63;;;2.13;;
39018;SDS011;24786;51.984;5.872;2023-01-16T04:56:26;4.25;;;2.85;;
39018;SDS011;24786;51.984;5.872;2023-01-16T04:58:52;4.78;;;1.98;;
39018;SDS011;24786;51.984;5.872;2023-01-16T05:01:18;4.70;;;1.67;;
39018;SDS011;24786;51.984;5.872;2023-01-16T05:03:44;6.90;;;1.88;;
39018;SDS011;24786;51.984;5.872;2023-01-16T05:06:10;7.05;;;1.70;;
39018;SDS011;24786;51.984;5.872;2023-01-16T05:08:35;4.22;;;1.67;;
39018;SDS011;24786;51.984;5.872;2023-01-16T05:11:01;9.07;;;2.10;;
39018;SDS011;24786;51.984;5.872;2023-01-16T05:13:28;8.93;;;2.35;;
39018;SDS011;24786;51.984;5.872;2023-01-16T05:15:54;8.23;;;2.20;;
39018;SDS011;24786;51.984;5.872;2023-01-16T05:18:20;2.42;;;1.45;;
39018;SDS011;24786;51.984;5.872;2023-01-16T05:20:45;8.98;;;2.35;;
39018;SDS011;24786;51.984;5.872;2023-01-16T05:23:11;8.00;;;2.58;;
39018;SDS011;24786;51.984;5.872;2023-01-16T05:25:37;6.70;;;3.20;;
39018;SDS011;24786;51.984;5.872;2023-01-16T05:28:03;7.55;;;2.95;;
39018;SDS011;24786;51.984;5.872;2023-01-16T05:30:29;7.55;;;2.47;;
39018;SDS011;24786;51.984;5.872;2023-01-16T05:32:54;5.50;;;2.97;;
39018;SDS011;24786;51.984;5.872;2023-01-16T05:35:20;5.57;;;3.20;;
39018;SDS011;24786;51.984;5.872;2023-01-16T05:37:46;6.05;;;3.03;;
39018;SDS011;24786;51.984;5.872;2023-01-16T05:40:12;6.43;;;3.10;;
39018;SDS011;24786;51.984;5.872;2023-01-16T05:42:38;9.55;;;3.67;;
39018;SDS011;24786;51.984;5.872;2023-01-16T05:45:06;4.78;;;2.60;;
39018;SDS011;24786;51.984;5.872;2023-01-16T05:47:32;7.03;;;2.92;;
39018;SDS011;24786;51.984;5.872;2023-01-16T05:49:58;7.82;;;2.50;;
39018;SDS011;24786;51.984;5.872;2023-01-16T05:52:26;7.95;;;2.85;;
39018;SDS011;24786;51.984;5.872;2023-01-16T05:54:52;5.57;;;2.53;;
39018;SDS011;24786;51.984;5.872;2023-01-16T05:57:19;12.73;;;2.72;;
39018;SDS011;24786;51.984;5.872;2023-01-16T05:59:48;6.10;;;2.88;;
39018;SDS011;24786;51.984;5.872;2023-01-16T06:02:15;4.20;;;2.40;;
39018;SDS011;24786;51.984;5.872;2023-01-16T06:04:42;5.25;;;2.47;;
39018;SDS011;24786;51.984;5.872;2023-01-16T06:07:07;6.57;;;2.67;;
39018;SDS011;24786;51.984;5.872;2023-01-16T06:09:33;9.23;;;2.88;;
39018;SDS011;24786;51.984;5.872;2023-01-16T06:11:58;3.40;;;2.10;;
39018;SDS011;24786;51.984;5.872;2023-01-16T06:14:24;3.80;;;2.20;;
39018;SDS011;24786;51.984;5.872;2023-01-16T06:16:49;4.68;;;2.20;;
39018;SDS011;24786;51.984;5.872;2023-01-16T06:19:15;2.63;;;1.60;;
39018;SDS011;24786;51.984;5.872;2023-01-16T06:21:41;5.28;;;2.10;;
39018;SDS011;24786;51.984;5.872;2023-01-16T06:24:06;5.15;;;1.70;;
39018;SDS011;24786;51.984;5.872;2023-01-16T06:26:32;6.10;;;1.92;;
39018;SDS011;24786;51.984;5.872;2023-01-16T06:28:57;4.90;;;1.45;;
39018;SDS011;24786;51.984;5.872;2023-01-16T06:31:23;5.18;;;2.08;;
39018;SDS011;24786;51.984;5.872;2023-01-16T06:33:49;2.80;;;2.13;;
39018;SDS011;24786;51.984;5.872;2023-01-16T06:36:14;6.47;;;1.75;;
39018;SDS011;24786;51.984;5.872;2023-01-16T06:38:42;6.63;;;1.83;;
39018;SDS011;24786;51.984;5.872;2023-01-16T06:41:07;2.88;;;1.48;;
39018;SDS011;24786;51.984;5.872;2023-01-16T06:43:33;3.85;;;1.75;;
39018;SDS011;24786;51.984;5.872;2023-01-16T06:45:59;2.38;;;1.60;;
39018;SDS011;24786;51.984;5.872;2023-01-16T06:48:24;3.00;;;1.52;;
39018;SDS011;24786;51.984;5.872;2023-01-16T06:50:51;6.88;;;1.80;;
39018;SDS011;24786;51.984;5.872;2023-01-16T06:53:17;4.82;;;1.45;;
39018;SDS011;24786;51.984;5.872;2023-01-16T06:55:43;3.65;;;1.63;;
39018;SDS011;24786;51.984;5.872;2023-01-16T06:58:08;2.50;;;1.42;;
39018;SDS011;24786;51.984;5.872;2023-01-16T07:00:34;2.35;;;1.10;;
39018;SDS011;24786;51.984;5.872;2023-01-16T07:03:00;6.22;;;1.45;;
39018;SDS011;24786;51.984;5.872;2023-01-16T07:05:27;3.85;;;1.25;;
39018;SDS011;24786;51.984;5.872;2023-01-16T07:07:54;5.13;;;1.58;;
39018;SDS011;24786;51.984;5.872;2023-01-16T07:10:20;6.20;;;2.00;;
39018;SDS011;24786;51.984;5.872;2023-01-16T07:12:50;2.85;;;1.42;;
39018;SDS011;24786;51.984;5.872;2023-01-16T07:15:17;3.70;;;1.27;;
39018;SDS011;24786;51.984;5.872;2023-01-16T07:18:02;5.22;;;1.92;;
39018;SDS011;24786;51.984;5.872;2023-01-16T07:20:49;2.72;;;1.80;;
39018;SDS011;24786;51.984;5.872;2023-01-16T07:23:35;3.13;;;1.90;;
39018;SDS011;24786;51.984;5.872;2023-01-16T07:26:04;3.53;;;2.03;;
39018;SDS011;24786;51.984;5.872;2023-01-16T07:28:31;7.60;;;2.35;;
39018;SDS011;24786;51.984;5.872;2023-01-16T07:30:58;5.80;;;2.47;;
39018;SDS011;24786;51.984;5.872;2023-01-16T07:33:25;5.43;;;2.60;;
39018;SDS011;24786;51.984;5.872;2023-01-16T07:35:51;4.55;;;2.65;;
39018;SDS011;24786;51.984;5.872;2023-01-16T07:38:16;9.32;;;2.97;;
39018;SDS011;24786;51.984;5.872;2023-01-16T07:40:42;5.65;;;2.67;;
39018;SDS011;24786;51.984;5.872;2023-01-16T07:43:07;5.10;;;2.28;;
39018;SDS011;24786;51.984;5.872;2023-01-16T07:45:33;7.10;;;2.85;;
39018;SDS011;24786;51.984;5.872;2023-01-16T07:47:58;4.82;;;3.00;;
39018;SDS011;24786;51.984;5.872;2023-01-16T07:50:25;9.27;;;3.00;;
39018;SDS011;24786;51.984;5.872;2023-01-16T07:52:52;6.15;;;2.80;;
39018;SDS011;24786;51.984;5.872;2023-01-16T07:55:17;10.13;;;3.17;;
39018;SDS011;24786;51.984;5.872;2023-01-16T07:57:43;5.97;;;2.78;;
39018;SDS011;24786;51.984;5.872;2023-01-16T08:00:09;6.30;;;2.90;;
39018;SDS011;24786;51.984;5.872;2023-01-16T08:02:36;7.10;;;2.65;;
39018;SDS011;24786;51.984;5.872;2023-01-16T08:05:02;6.70;;;2.75;;
39018;SDS011;24786;51.984;5.872;2023-01-16T08:07:28;8.85;;;3.15;;
39018;SDS011;24786;51.984;5.872;2023-01-16T08:09:54;6.65;;;3.20;;
39018;SDS011;24786;51.984;5.872;2023-01-16T08:12:19;7.03;;;3.35;;
39018;SDS011;24786;51.984;5.872;2023-01-16T08:14:45;5.72;;;2.85;;
39018;SDS011;24786;51.984;5.872;2023-01-16T08:17:10;2.63;;;2.22;;
39018;SDS011;24786;51.984;5.872;2023-01-16T08:19:36;3.55;;;2.30;;
39018;SDS011;24786;51.984;5.872;2023-01-16T08:22:02;3.70;;;1.75;;
39018;SDS011;24786;51.984;5.872;2023-01-16T08:24:27;3.28;;;1.83;;
39018;SDS011;24786;51.984;5.872;2023-01-16T08:26:54;3.53;;;1.70;;
39018;SDS011;24786;51.984;5.872;2023-01-16T08:29:20;4.50;;;1.80;;
39018;SDS011;24786;51.984;5.872;2023-01-16T08:31:46;5.00;;;1.95;;
39018;SDS011;24786;51.984;5.872;2023-01-16T08:34:11;3.33;;;1.85;;
39018;SDS011;24786;51.984;5.872;2023-01-16T08:36:37;4.53;;;2.67;;
39018;SDS011;24786;51.984;5.872;2023-01-16T08:39:03;4.88;;;2.05;;
39018;SDS011;24786;51.984;5.872;2023-01-16T08:41:28;3.00;;;2.05;;
39018;SDS011;24786;51.984;5.872;2023-01-16T08:44:12;4.03;;;1.70;;
39018;SDS011;24786;51.984;5.872;2023-01-16T08:46:59;2.42;;;1.85;;
39018;SDS011;24786;51.984;5.872;2023-01-16T08:49:48;2.70;;;2.03;;
39018;SDS011;24786;51.984;5.872;2023-01-16T08:52:34;2.88;;;1.90;;
39018;SDS011;24786;51.984;5.872;2023-01-16T08:55:01;4.25;;;1.70;;
39018;SDS011;24786;51.984;5.872;2023-01-16T08:57:29;2.47;;;1.75;;
39018;SDS011;24786;51.984;5.872;2023-01-16T08:59:55;6.80;;;2.40;;
39018;SDS011;24786;51.984;5.872;2023-01-16T09:02:22;2.90;;;1.65;;
39018;SDS011;24786;51.984;5.872;2023-01-16T09:04:49;5.55;;;2.30;;
39018;SDS011;24786;51.984;5.872;2023-01-16T09:07:15;4.85;;;2.35;;
39018;SDS011;24786;51.984;5.872;2023-01-16T09:09:41;4.38;;;2.00;;
39018;SDS011;24786;51.984;5.872;2023-01-16T09:12:10;4.07;;;2.50;;
39018;SDS011;24786;51.984;5.872;2023-01-16T09:14:55;4.95;;;2.08;;
39018;SDS011;24786;51.984;5.872;2023-01-16T09:17:22;7.40;;;2.13;;
39018;SDS011;24786;51.984;5.872;2023-01-16T09:19:48;3.58;;;2.17;;
39018;SDS011;24786;51.984;5.872;2023-01-16T09:22:14;5.38;;;2.10;;
39018;SDS011;24786;51.984;5.872;2023-01-16T09:24:39;4.70;;;2.55;;
39018;SDS011;24786;51.984;5.872;2023-01-16T09:27:05;3.55;;;2.47;;
39018;SDS011;24786;51.984;5.872;2023-01-16T09:29:31;4.38;;;2.85;;
39018;SDS011;24786;51.984;5.872;2023-01-16T09:31:58;7.40;;;3.10;;
39018;SDS011;24786;51.984;5.872;2023-01-16T09:34:23;6.80;;;3.05;;
39018;SDS011;24786;51.984;5.872;2023-01-16T09:36:49;4.85;;;3.20;;
39018;SDS011;24786;51.984;5.872;2023-01-16T09:39:15;5.22;;;2.80;;
39018;SDS011;24786;51.984;5.872;2023-01-16T09:44:49;5.13;;;2.83;;
39018;SDS011;24786;51.984;5.872;2023-01-16T09:47:17;5.97;;;3.10;;
39018;SDS011;24786;51.984;5.872;2023-01-16T09:49:49;6.80;;;2.90;;
39018;SDS011;24786;51.984;5.872;2023-01-16T09:55:10;3.00;;;2.53;;
39018;SDS011;24786;51.984;5.872;2023-01-16T09:58:23;4.50;;;2.70;;
39018;SDS011;24786;51.984;5.872;2023-01-16T10:01:01;5.50;;;2.83;;
39018;SDS011;24786;51.984;5.872;2023-01-16T10:03:33;6.38;;;2.88;;
39018;SDS011;24786;51.984;5.872;2023-01-16T10:06:06;6.53;;;3.90;;
39018;SDS011;24786;51.984;5.872;2023-01-16T10:11:21;4.18;;;2.75;;
39018;SDS011;24786;51.984;5.872;2023-01-16T10:13:53;3.22;;;2.78;;
39018;SDS011;24786;51.984;5.872;2023-01-16T10:29:42;2.78;;;2.53;;
39018;SDS011;24786;51.984;5.872;2023-01-16T10:35:21;2.50;;;2.30;;
39018;SDS011;24786;51.984;5.872;2023-01-16T10:37:54;6.70;;;2.50;;
39018;SDS011;24786;51.984;5.872;2023-01-16T10:40:23;2.70;;;2.13;;
39018;SDS011;24786;51.984;5.872;2023-01-16T10:43:00;3.63;;;2.35;;
39018;SDS011;24786;51.984;5.872;2023-01-16T10:45:52;4.07;;;2.40;;
39018;SDS011;24786;51.984;5.872;2023-01-16T10:48:39;5.15;;;2.42;;
39018;SDS011;24786;51.984;5.872;2023-01-16T10:51:23;2.22;;;2.03;;
39018;SDS011;24786;51.984;5.872;2023-01-16T10:53:49;2.50;;;2.15;;
39018;SDS011;24786;51.984;5.872;2023-01-16T10:56:14;4.32;;;2.45;;
39018;SDS011;24786;51.984;5.872;2023-01-16T10:58:40;3.78;;;2.55;;
39018;SDS011;24786;51.984;5.872;2023-01-16T11:01:10;2.95;;;2.22;;
39018;SDS011;24786;51.984;5.872;2023-01-16T11:03:47;3.00;;;2.10;;
39018;SDS011;24786;51.984;5.872;2023-01-16T11:06:28;2.63;;;2.03;;
39018;SDS011;24786;51.984;5.872;2023-01-16T11:09:06;4.20;;;2.15;;
39018;SDS011;24786;51.984;5.872;2023-01-16T11:11:36;4.68;;;2.08;;
39018;SDS011;24786;51.984;5.872;2023-01-16T11:14:24;3.20;;;1.85;;
39018;SDS011;24786;51.984;5.872;2023-01-16T11:20:17;3.38;;;1.70;;
39018;SDS011;24786;51.984;5.872;2023-01-16T11:22:44;3.03;;;1.88;;
39018;SDS011;24786;51.984;5.872;2023-01-16T11:25:14;2.08;;;1.55;;
39018;SDS011;24786;51.984;5.872;2023-01-16T11:27:43;3.65;;;1.45;;
39018;SDS011;24786;51.984;5.872;2023-01-16T11:30:17;3.63;;;1.45;;
39018;SDS011;24786;51.984;5.872;2023-01-16T11:32:51;2.00;;;1.30;;
39018;SDS011;24786;51.984;5.872;2023-01-16T11:35:19;3.00;;;1.27;;
39018;SDS011;24786;51.984;5.872;2023-01-16T11:37:50;1.75;;;1.05;;
39018;SDS011;24786;51.984;5.872;2023-01-16T11:40:18;4.70;;;1.35;;
39018;SDS011;24786;51.984;5.872;2023-01-16T11:42:56;4.53;;;1.35;;
39018;SDS011;24786;51.984;5.872;2023-01-16T11:45:46;1.88;;;1.30;;
39018;SDS011;24786;51.984;5.872;2023-01-16T11:48:52;1.67;;;1.40;;
39018;SDS011;24786;51.984;5.872;2023-01-16T11:53:46;1.73;;;1.23;;
39018;SDS011;24786;51.984;5.872;2023-01-16T11:59:00;2.80;;;1.30;;
39018;SDS011;24786;51.984;5.872;2023-01-16T12:07:51;1.55;;;1.10;;
39018;SDS011;24786;51.984;5.872;2023-01-16T12:13:06;1.45;;;1.00;;
39018;SDS011;24786;51.984;5.872;2023-01-16T12:16:00;2.55;;;0.93;;
39018;SDS011;24786;51.984;5.872;2023-01-16T12:30:17;1.75;;;1.10;;
39018;SDS011;24786;51.984;5.872;2023-01-16T12:33:13;0.80;;;0.80;;
39018;SDS011;24786;51.984;5.872;2023-01-16T12:38:27;6.55;;;1.35;;
39018;SDS011;24786;51.984;5.872;2023-01-16T12:41:23;1.20;;;1.00;;
39018;SDS011;24786;51.984;5.872;2023-01-16T12:44:31;1.20;;;1.00;;
39018;SDS011;24786;51.984;5.872;2023-01-16T12:47:17;1.83;;;1.20;;
39018;SDS011;24786;51.984;5.872;2023-01-16T12:53:04;1.50;;;1.23;;
39018;SDS011;24786;51.984;5.872;2023-01-16T12:55:23;1.70;;;1.10;;
39018;SDS011;24786;51.984;5.872;2023-01-16T13:00:44;1.17;;;1.08;;
39018;SDS011;24786;51.984;5.872;2023-01-16T13:03:19;2.17;;;1.10;;
39018;SDS011;24786;51.984;5.872;2023-01-16T13:05:53;1.10;;;1.00;;
39018;SDS011;24786;51.984;5.872;2023-01-16T13:10:51;1.30;;;0.97;;
39018;SDS011;24786;51.984;5.872;2023-01-16T13:13:42;2.05;;;1.40;;
39018;SDS011;24786;51.984;5.872;2023-01-16T13:21:36;1.10;;;1.00;;
39018;SDS011;24786;51.984;5.872;2023-01-16T13:24:12;2.25;;;1.23;;
39018;SDS011;24786;51.984;5.872;2023-01-16T13:26:51;0.98;;;0.98;;
39018;SDS011;24786;51.984;5.872;2023-01-16T13:29:23;1.08;;;1.00;;
39018;SDS011;24786;51.984;5.872;2023-01-16T13:31:55;2.22;;;1.08;;
39018;SDS011;24786;51.984;5.872;2023-01-16T13:34:31;1.65;;;1.10;;
39018;SDS011;24786;51.984;5.872;2023-01-16T13:40:02;1.02;;;1.02;;
39018;SDS011;24786;51.984;5.872;2023-01-16T13:43:00;1.73;;;1.25;;
39018;SDS011;24786;51.984;5.872;2023-01-16T13:45:51;1.13;;;1.10;;
39018;SDS011;24786;51.984;5.872;2023-01-16T13:48:19;1.33;;;1.13;;
39018;SDS011;24786;51.984;5.872;2023-01-16T13:50:52;1.38;;;1.15;;
39018;SDS011;24786;51.984;5.872;2023-01-16T13:53:25;1.45;;;0.82;;
39018;SDS011;24786;51.984;5.872;2023-01-16T13:56:02;1.10;;;1.00;;
39018;SDS011;24786;51.984;5.872;2023-01-16T13:58:41;0.70;;;0.70;;
39018;SDS011;24786;51.984;5.872;2023-01-16T14:04:32;0.82;;;0.55;;
39018;SDS011;24786;51.984;5.872;2023-01-16T14:06:54;2.25;;;1.20;;
39018;SDS011;24786;51.984;5.872;2023-01-16T14:13:11;1.30;;;1.20;;
39018;SDS011;24786;51.984;5.872;2023-01-16T14:15:49;1.40;;;1.30;;
39018;SDS011;24786;51.984;5.872;2023-01-16T14:18:41;1.30;;;1.13;;
39018;SDS011;24786;51.984;5.872;2023-01-16T14:23:54;2.58;;;1.38;;
39018;SDS011;24786;51.984;5.872;2023-01-16T14:26:32;1.40;;;1.30;;
39018;SDS011;24786;51.984;5.872;2023-01-16T14:29:04;3.78;;;1.30;;
39018;SDS011;24786;51.984;5.872;2023-01-16T14:31:42;3.67;;;1.42;;
39018;SDS011;24786;51.984;5.872;2023-01-16T14:34:23;1.77;;;1.27;;
39018;SDS011;24786;51.984;5.872;2023-01-16T14:39:25;1.13;;;1.08;;
39018;SDS011;24786;51.984;5.872;2023-01-16T14:41:54;2.17;;;1.40;;
39018;SDS011;24786;51.984;5.872;2023-01-16T14:44:58;3.28;;;1.60;;
39018;SDS011;24786;51.984;5.872;2023-01-16T14:50:55;2.53;;;1.60;;
39018;SDS011;24786;51.984;5.872;2023-01-16T15:02:16;3.85;;;1.90;;
39018;SDS011;24786;51.984;5.872;2023-01-16T15:07:48;2.10;;;1.80;;
39018;SDS011;24786;51.984;5.872;2023-01-16T15:10:21;1.83;;;1.67;;
39018;SDS011;24786;51.984;5.872;2023-01-16T15:16:15;2.88;;;1.80;;
39018;SDS011;24786;51.984;5.872;2023-01-16T15:19:13;2.33;;;1.75;;
39018;SDS011;24786;51.984;5.872;2023-01-16T15:22:04;2.50;;;2.08;;
39018;SDS011;24786;51.984;5.872;2023-01-16T15:24:39;2.40;;;2.20;;
39018;SDS011;24786;51.984;5.872;2023-01-16T15:27:14;3.70;;;2.00;;
39018;SDS011;24786;51.984;5.872;2023-01-16T15:30:06;2.30;;;2.08;;
39018;SDS011;24786;51.984;5.872;2023-01-16T15:32:55;2.92;;;2.40;;
39018;SDS011;24786;51.984;5.872;2023-01-16T15:35:43;2.85;;;2.25;;
39018;SDS011;24786;51.984;5.872;2023-01-16T15:38:18;4.88;;;2.30;;
39018;SDS011;24786;51.984;5.872;2023-01-16T15:40:48;4.20;;;2.60;;
39018;SDS011;24786;51.984;5.872;2023-01-16T15:43:15;4.60;;;2.50;;
39018;SDS011;24786;51.984;5.872;2023-01-16T15:46:07;3.60;;;2.70;;
39018;SDS011;24786;51.984;5.872;2023-01-16T15:49:21;2.75;;;2.47;;
39018;SDS011;24786;51.984;5.872;2023-01-16T15:51:52;4.22;;;2.65;;
39018;SDS011;24786;51.984;5.872;2023-01-16T15:54:18;3.15;;;2.47;;
39018;SDS011;24786;51.984;5.872;2023-01-16T15:56:44;3.10;;;2.70;;
39018;SDS011;24786;51.984;5.872;2023-01-16T15:59:31;3.58;;;2.70;;
39018;SDS011;24786;51.984;5.872;2023-01-16T16:02:16;4.95;;;2.88;;
39018;SDS011;24786;51.984;5.872;2023-01-16T16:04:44;2.88;;;2.60;;
39018;SDS011;24786;51.984;5.872;2023-01-16T16:07:11;3.67;;;2.58;;
39018;SDS011;24786;51.984;5.872;2023-01-16T16:09:37;2.97;;;2.47;;
39018;SDS011;24786;51.984;5.872;2023-01-16T16:12:04;3.85;;;2.38;;
39018;SDS011;24786;51.984;5.872;2023-01-16T16:14:32;4.07;;;2.67;;
39018;SDS011;24786;51.984;5.872;2023-01-16T16:22:52;5.47;;;3.35;;
39018;SDS011;24786;51.984;5.872;2023-01-16T16:28:24;4.13;;;2.92;;
39018;SDS011;24786;51.984;5.872;2023-01-16T16:30:55;3.30;;;2.83;;
39018;SDS011;24786;51.984;5.872;2023-01-16T16:33:24;3.92;;;3.42;;
39018;SDS011;24786;51.984;5.872;2023-01-16T16:35:51;4.30;;;3.83;;
39018;SDS011;24786;51.984;5.872;2023-01-16T16:38:23;4.28;;;3.80;;
39018;SDS011;24786;51.984;5.872;2023-01-16T16:46:48;4.55;;;3.97;;
39018;SDS011;24786;51.984;5.872;2023-01-16T16:51:39;6.95;;;4.40;;
39018;SDS011;24786;51.984;5.872;2023-01-16T16:54:06;7.45;;;4.50;;
39018;SDS011;24786;51.984;5.872;2023-01-16T16:56:38;6.78;;;5.53;;
39018;SDS011;24786;51.984;5.872;2023-01-16T16:59:11;8.30;;;4.93;;
39018;SDS011;24786;51.984;5.872;2023-01-16T17:01:45;6.97;;;5.90;;
39018;SDS011;24786;51.984;5.872;2023-01-16T17:04:14;7.93;;;5.85;;
39018;SDS011;24786;51.984;5.872;2023-01-16T17:06:43;7.70;;;6.07;;
39018;SDS011;24786;51.984;5.872;2023-01-16T17:09:13;7.70;;;6.32;;
39018;SDS011;24786;51.984;5.872;2023-01-16T17:11:42;11.02;;;6.28;;
39018;SDS011;24786;51.984;5.872;2023-01-16T17:14:08;10.13;;;5.88;;
39018;SDS011;24786;51.984;5.872;2023-01-16T17:16:34;6.20;;;5.00;;
39018;SDS011;24786;51.984;5.872;2023-01-16T17:19:19;4.95;;;3.92;;
39018;SDS011;24786;51.984;5.872;2023-01-16T17:21:53;3.33;;;2.83;;
39018;SDS011;24786;51.984;5.872;2023-01-16T17:24:19;4.65;;;3.10;;
39018;SDS011;24786;51.984;5.872;2023-01-16T17:26:45;3.20;;;2.78;;
39018;SDS011;24786;51.984;5.872;2023-01-16T17:29:11;4.95;;;2.72;;
39018;SDS011;24786;51.984;5.872;2023-01-16T17:31:37;5.28;;;3.05;;
39018;SDS011;24786;51.984;5.872;2023-01-16T17:34:05;3.63;;;3.00;;
39018;SDS011;24786;51.984;5.872;2023-01-16T17:36:36;4.05;;;2.70;;
39018;SDS011;24786;51.984;5.872;2023-01-16T17:39:02;3.58;;;3.17;;
39018;SDS011;24786;51.984;5.872;2023-01-16T17:41:28;3.85;;;3.13;;
39018;SDS011;24786;51.984;5.872;2023-01-16T17:44:15;4.22;;;3.28;;
39018;SDS011;24786;51.984;5.872;2023-01-16T17:47:01;3.50;;;3.10;;